Time;durP1;ratioP1;P1;durP2;ratioP2;P2;SDS_P1;SDS_P2;PMS_P1;PMS_P2;Temp;Humidity;BMP_temperature;BMP_pressure;BME280_temperature;BME280_humidity;BME280_pressure;Samples;Min_cycle;Max_cycle;Signal;HPM_P1;HPM_P2
2021/12/18 00:01:59;;;;;;;23.20;12.13;;;;;;;6.79;100.00;104016.25;5093820;28;20387;-84
2021/12/18 00:04:24;;;;;;;21.65;11.65;;;;;;;6.84;100.00;104029.44;5102253;28;20110;-84
2021/12/18 00:06:50;;;;;;;21.75;11.57;;;;;;;6.84;100.00;104022.53;5114029;28;20027;-85
2021/12/18 00:09:15;;;;;;;22.63;12.27;;;;;;;6.83;100.00;104017.25;5114112;28;20039;-84
2021/12/18 00:11:41;;;;;;;22.70;11.80;;;;;;;6.83;100.00;104015.53;5112868;28;20024;-85
2021/12/18 00:14:06;;;;;;;24.73;11.90;;;;;;;6.84;100.00;104021.66;5109330;28;20055;-84
2021/12/18 00:16:31;;;;;;;21.52;12.00;;;;;;;6.83;100.00;104017.25;5093439;28;20472;-84
2021/12/18 00:18:57;;;;;;;23.35;12.35;;;;;;;6.84;100.00;104013.88;5092706;28;20028;-84
2021/12/18 00:21:24;;;;;;;25.05;11.93;;;;;;;6.85;100.00;104020.81;5093693;28;20028;-84
2021/12/18 00:23:50;;;;;;;24.80;12.90;;;;;;;6.79;100.00;104009.34;5093305;28;20070;-84
2021/12/18 00:26:15;;;;;;;25.65;12.30;;;;;;;6.82;100.00;104012.91;5092488;28;20495;-84
2021/12/18 00:28:41;;;;;;;24.98;12.68;;;;;;;6.84;100.00;104017.34;5095343;28;20024;-84
2021/12/18 00:31:06;;;;;;;23.42;12.55;;;;;;;6.80;100.00;104002.44;5113955;28;20034;-84
2021/12/18 00:33:32;;;;;;;24.10;13.70;;;;;;;6.84;100.00;104006.97;5112808;28;20034;-85
2021/12/18 00:35:57;;;;;;;23.85;12.55;;;;;;;6.77;100.00;103995.44;5113276;28;20375;-84
2021/12/18 00:38:28;;;;;;;26.67;13.13;;;;;;;6.79;100.00;104006.75;5113607;28;20040;-85
2021/12/18 00:43:36;;;;;;;23.15;12.38;;;;;;;6.78;100.00;103999.81;5108283;28;20036;-84
2021/12/18 00:46:02;;;;;;;22.23;12.75;;;;;;;6.79;100.00;104001.56;5093175;28;20031;-84
2021/12/18 00:48:27;;;;;;;21.90;12.02;;;;;;;6.80;100.00;103999.84;5091929;28;20028;-84
2021/12/18 00:50:53;;;;;;;21.17;10.60;;;;;;;6.77;100.00;103995.44;5092775;28;20036;-84
2021/12/18 00:53:19;;;;;;;24.40;11.13;;;;;;;6.75;100.00;103991.91;5092691;28;20528;-84
2021/12/18 00:55:44;;;;;;;24.13;11.18;;;;;;;6.78;100.00;103998.94;5091840;28;20107;-84
2021/12/18 00:58:11;;;;;;;20.75;10.18;;;;;;;6.77;100.00;103994.56;5095385;28;20035;-84
2021/12/18 01:00:38;;;;;;;21.67;10.25;;;;;;;6.75;100.00;103991.91;5112436;28;20394;-84
2021/12/18 01:03:05;;;;;;;20.88;10.43;;;;;;;6.70;100.00;103985.66;5112740;28;20035;-85
2021/12/18 01:05:32;;;;;;;20.92;9.82;;;;;;;6.72;100.00;103996.06;5112833;28;20058;-84
2021/12/18 01:07:58;;;;;;;21.38;10.07;;;;;;;6.69;100.00;103991.63;5111720;28;20028;-85
2021/12/18 01:10:56;;;;;;;21.13;9.65;;;;;;;6.72;100.00;103988.28;5113148;28;20038;-84
2021/12/18 01:13:26;;;;;;;20.88;9.95;;;;;;;6.71;100.00;103984.81;5113194;28;20031;-84
2021/12/18 01:15:55;;;;;;;19.52;9.95;;;;;;;6.70;100.00;103988.25;5111945;28;20056;-84
2021/12/18 01:23:49;;;;;;;19.92;10.30;;;;;;;6.72;100.00;103980.50;5111678;28;20537;-84
2021/12/18 01:26:14;;;;;;;19.08;9.88;;;;;;;6.70;100.00;103974.34;5104023;28;20043;-84
2021/12/18 01:28:40;;;;;;;18.80;9.82;;;;;;;6.72;100.00;103980.50;5091729;28;20104;-84
2021/12/18 01:31:05;;;;;;;19.50;10.20;;;;;;;6.70;100.00;103971.75;5102469;28;20088;-84
2021/12/18 01:33:32;;;;;;;19.17;9.73;;;;;;;6.71;100.00;103987.41;5112580;28;20028;-84
2021/12/18 01:36:00;;;;;;;20.10;10.27;;;;;;;6.71;100.00;103978.75;5111518;28;20024;-84
2021/12/18 01:38:28;;;;;;;18.30;9.20;;;;;;;6.72;100.00;103988.28;5112232;28;20031;-84
2021/12/18 01:40:54;;;;;;;18.05;9.95;;;;;;;6.69;100.00;103983.84;5112320;28;20367;-84
2021/12/18 01:46:04;;;;;;;17.40;8.38;;;;;;;6.69;100.00;103988.16;5111163;28;20044;-84
2021/12/18 01:53:46;;;;;;;17.67;8.82;;;;;;;6.70;100.00;103998.59;5111921;28;20039;-84
2021/12/18 01:56:12;;;;;;;18.65;9.15;;;;;;;6.70;100.00;103997.69;5112381;28;20699;-84
2021/12/18 01:58:37;;;;;;;17.33;9.32;;;;;;;6.70;100.00;103993.41;5111000;28;20024;-84
2021/12/18 02:01:04;;;;;;;18.52;8.60;;;;;;;6.71;100.00;104002.09;5111056;28;20494;-85
2021/12/18 02:03:31;;;;;;;20.08;9.07;;;;;;;6.70;100.00;104008.06;5111831;28;20455;-84
2021/12/18 02:05:56;;;;;;;19.75;9.57;;;;;;;6.68;100.00;104000.25;5111313;28;20027;-85
2021/12/18 02:08:24;;;;;;;16.63;7.80;;;;;;;6.69;100.00;104007.19;5112300;28;20027;-84
2021/12/18 02:21:56;;;;;;;;;;;;;;;6.72;100.00;104001.25;5096060;28;20417;-85
2021/12/18 02:24:25;;;;;;;17.77;7.88;;;;;;;6.64;100.00;103987.97;5095950;28;20275;-83
2021/12/18 02:26:50;;;;;;;19.10;9.35;;;;;;;6.64;100.00;103984.47;5094595;28;20557;-84
2021/12/18 02:29:16;;;;;;;18.67;9.02;;;;;;;6.69;100.00;103990.75;5095405;28;20059;-84
2021/12/18 02:31:44;;;;;;;20.15;9.30;;;;;;;6.67;100.00;103988.09;5115813;28;20020;-84
2021/12/18 02:34:20;;;;;;;18.33;9.02;;;;;;;6.66;100.00;103988.91;5115291;28;20030;-85
2021/12/18 02:36:48;;;;;;;20.67;9.68;;;;;;;6.64;100.00;103982.78;5115629;28;20036;-84
2021/12/18 02:39:38;;;;;;;19.25;10.07;;;;;;;6.65;100.00;103979.38;5115090;28;20039;-85
2021/12/18 02:44:39;;;;;;;21.48;10.63;;;;;;;6.66;100.00;103985.44;5115796;27;20060;-85
2021/12/18 02:47:06;;;;;;;24.13;10.48;;;;;;;6.65;100.00;103978.47;5114940;28;20027;-84
2021/12/18 02:49:31;;;;;;;23.25;11.07;;;;;;;6.57;100.00;103970.34;5115720;28;20054;-85
2021/12/18 02:51:56;;;;;;;22.33;10.75;;;;;;;6.60;100.00;103973.06;5115243;28;20463;-85
2021/12/18 02:54:22;;;;;;;22.98;11.00;;;;;;;6.58;100.00;103974.75;5114688;28;20368;-84
2021/12/18 02:56:47;;;;;;;19.25;10.02;;;;;;;6.59;100.00;103973.91;5113897;27;20068;-85
2021/12/18 02:59:12;;;;;;;21.45;11.13;;;;;;;6.55;100.00;103965.13;5115546;28;20106;-84
2021/12/18 03:01:40;;;;;;;20.10;10.57;;;;;;;6.57;100.00;103960.91;5114306;28;20364;-84
2021/12/18 03:04:21;;;;;;;22.55;10.80;;;;;;;6.54;100.00;103954.69;5115422;28;20172;-84
2021/12/18 03:06:51;;;;;;;19.52;10.00;;;;;;;6.56;100.00;103963.41;5114700;28;20364;-85
2021/12/18 03:21:10;;;;;;;21.63;9.98;;;;;;;6.54;100.00;103959.88;5114982;28;20003;-84
2021/12/18 03:25:57;;;;;;;20.92;10.82;;;;;;;6.51;100.00;103939.00;5113725;28;20104;-84
2021/12/18 03:28:22;;;;;;;20.88;10.38;;;;;;;6.51;100.00;103945.06;5100544;28;20035;-85
2021/12/18 03:30:48;;;;;;;23.00;10.52;;;;;;;6.51;100.00;103951.97;5094162;28;20024;-85
2021/12/18 03:33:13;;;;;;;23.98;11.38;;;;;;;6.52;100.00;103956.31;5094502;28;20470;-85
2021/12/18 03:35:38;;;;;;;22.73;10.55;;;;;;;6.51;100.00;103949.38;5093142;28;20785;-84
2021/12/18 03:38:04;;;;;;;21.58;10.52;;;;;;;6.47;100.00;103942.28;5094224;28;20468;-84
2021/12/18 03:40:29;;;;;;;26.58;11.48;;;;;;;6.50;100.00;103950.19;5095051;28;20051;-84
2021/12/18 03:42:55;;;;;;;22.10;10.88;;;;;;;6.51;100.00;103954.56;5113717;28;20076;-84
2021/12/18 03:45:22;;;;;;;22.77;10.98;;;;;;;6.50;100.00;103947.59;5114858;28;20023;-84
2021/12/18 03:47:49;;;;;;;21.65;10.63;;;;;;;6.52;100.00;103958.91;5114073;28;20076;-84
2021/12/18 03:50:14;;;;;;;23.00;10.55;;;;;;;6.49;100.00;103956.19;5113967;28;20031;-84
2021/12/18 03:52:40;;;;;;;20.85;10.18;;;;;;;6.52;100.00;103966.69;5113965;28;20500;-84
2021/12/18 03:55:06;;;;;;;25.35;10.70;;;;;;;6.52;100.00;103961.50;5113535;28;20024;-84
2021/12/18 03:57:31;;;;;;;23.10;11.10;;;;;;;6.52;100.00;103969.28;5113613;28;20024;-84
2021/12/18 03:59:57;;;;;;;23.75;11.07;;;;;;;6.48;100.00;103967.38;5114003;28;20034;-85
2021/12/18 04:02:22;;;;;;;22.35;11.18;;;;;;;6.46;100.00;103958.66;5114250;28;20028;-85
2021/12/18 04:04:48;;;;;;;24.83;10.85;;;;;;;6.47;100.00;103963.88;5112786;27;20024;-84
2021/12/18 04:07:14;;;;;;;23.42;10.77;;;;;;;6.47;100.00;103963.00;5111880;28;20039;-84
2021/12/18 04:09:39;;;;;;;23.10;10.85;;;;;;;6.44;100.00;103958.59;5113852;28;20058;-85
2021/12/18 04:12:05;;;;;;;22.98;11.20;;;;;;;6.46;100.00;103961.25;5113401;28;20488;-84
2021/12/18 04:14:31;;;;;;;23.67;10.38;;;;;;;6.45;100.00;103962.06;5114056;28;20083;-84
2021/12/18 04:16:56;;;;;;;23.42;10.27;;;;;;;6.47;100.00;103965.59;5113669;28;20412;-85
2021/12/18 04:19:21;;;;;;;21.02;10.43;;;;;;;6.47;100.00;103965.59;5113252;28;20028;-85
2021/12/18 04:21:47;;;;;;;19.30;10.18;;;;;;;6.46;100.00;103962.13;5098234;28;20032;-84
2021/12/18 04:24:12;;;;;;;19.95;9.98;;;;;;;6.43;100.00;103958.50;5093626;28;20024;-84
2021/12/18 04:26:37;;;;;;;22.20;9.63;;;;;;;6.47;100.00;103963.00;5092077;28;20460;-84
2021/12/18 04:29:06;;;;;;;20.80;10.85;;;;;;;6.45;100.00;103969.84;5093448;28;20078;-84
2021/12/18 04:31:32;;;;;;;20.45;10.05;;;;;;;6.46;100.00;103961.25;5093317;28;20017;-84
2021/12/18 04:33:57;;;;;;;22.80;10.75;;;;;;;6.44;100.00;103957.69;5092282;28;20020;-84
2021/12/18 04:36:23;;;;;;;24.15;10.45;;;;;;;6.46;100.00;103961.25;5105121;28;20054;-84
2021/12/18 04:38:49;;;;;;;24.65;11.65;;;;;;;6.46;100.00;103962.13;5111745;28;20482;-83
2021/12/18 04:41:22;;;;;;;21.52;10.70;;;;;;;6.47;100.00;103968.19;5113592;28;20031;-85
2021/12/18 04:43:47;;;;;;;21.63;9.67;;;;;;;6.46;100.00;103964.72;5111053;28;20020;-85
2021/12/18 04:46:13;;;;;;;24.73;10.40;;;;;;;6.42;100.00;103960.22;5112696;28;20387;-85
2021/12/18 04:48:38;;;;;;;24.52;10.55;;;;;;;6.43;100.00;103963.69;5112834;28;20031;-84
2021/12/18 04:51:03;;;;;;;21.60;9.70;;;;;;;6.43;100.00;103966.28;5096838;28;20140;-85
2021/12/18 04:53:29;;;;;;;23.08;10.88;;;;;;;6.42;100.00;103968.00;5091896;28;20048;-84
2021/12/18 04:55:54;;;;;;;25.58;10.60;;;;;;;6.39;100.00;103967.88;5092589;28;20028;-85
2021/12/18 04:58:19;;;;;;;19.63;9.68;;;;;;;6.39;100.00;103972.16;5092906;28;20533;-85
2021/12/18 05:00:47;;;;;;;21.73;10.38;;;;;;;6.39;100.00;103969.56;5091536;28;20360;-84
2021/12/18 05:03:14;;;;;;;23.08;10.65;;;;;;;6.38;100.00;103968.69;5092716;28;20099;-85
2021/12/18 05:05:40;;;;;;;24.92;11.40;;;;;;;6.39;100.00;103966.97;5105735;28;20106;-84
2021/12/18 05:08:05;;;;;;;24.50;10.13;;;;;;;6.36;100.00;103972.03;5112433;28;20102;-84
2021/12/18 05:10:31;;;;;;;22.67;10.80;;;;;;;6.37;100.00;103971.19;5112827;28;20522;-84
2021/12/18 05:12:57;;;;;;;22.88;10.50;;;;;;;6.36;100.00;103975.50;5112563;28;20027;-85
2021/12/18 05:15:22;;;;;;;20.45;10.05;;;;;;;6.37;100.00;103978.97;5112138;28;20111;-84
2021/12/18 05:17:48;;;;;;;20.98;10.05;;;;;;;6.33;100.00;103976.25;5112301;28;20047;-84
2021/12/18 05:20:13;;;;;;;22.88;10.85;;;;;;;6.35;100.00;103975.44;5111582;28;20436;-84
2021/12/18 05:22:38;;;;;;;20.92;9.98;;;;;;;6.33;100.00;103988.31;5111639;28;20031;-84
2021/12/18 05:25:06;;;;;;;20.98;10.43;;;;;;;6.31;100.00;103982.16;5112706;28;20436;-85
2021/12/18 05:27:31;;;;;;;20.98;9.43;;;;;;;6.30;100.00;103977.81;5112288;28;20100;-84
2021/12/18 05:29:57;;;;;;;21.77;9.95;;;;;;;6.29;100.00;103982.13;5111658;28;20118;-84
2021/12/18 05:32:22;;;;;;;22.98;9.68;;;;;;;6.29;100.00;103978.66;5112719;28;20047;-84
2021/12/18 05:34:47;;;;;;;22.65;9.38;;;;;;;6.25;100.00;103974.16;5108717;28;20027;-85
2021/12/18 05:37:30;;;;;;;22.25;9.95;;;;;;;6.21;100.00;103975.72;5110540;28;20107;-84
2021/12/18 05:39:56;;;;;;;20.77;8.93;;;;;;;6.24;100.00;103981.00;5112222;28;20019;-84
2021/12/18 05:42:21;;;;;;;22.70;9.48;;;;;;;6.20;100.00;103976.53;5111788;28;20030;-84
2021/12/18 05:44:46;;;;;;;19.35;8.98;;;;;;;6.22;100.00;103972.31;5111905;28;20051;-84
2021/12/18 05:47:12;;;;;;;22.20;8.95;;;;;;;6.23;100.00;103978.38;5112190;28;20489;-84
2021/12/18 05:49:38;;;;;;;19.92;8.73;;;;;;;6.24;100.00;103969.78;5108277;28;20566;-84
2021/12/18 05:52:05;;;;;;;20.00;8.75;;;;;;;6.24;100.00;103978.41;5112457;28;20027;-84
2021/12/18 05:54:34;;;;;;;19.05;8.45;;;;;;;6.22;100.00;103966.25;5109998;28;20027;-84
2021/12/18 05:57:00;;;;;;;20.08;9.18;;;;;;;6.25;100.00;103977.63;5111232;28;20387;-84
2021/12/18 05:59:26;;;;;;;22.95;9.30;;;;;;;6.22;100.00;103981.78;5111795;28;20592;-84
2021/12/18 06:01:51;;;;;;;20.83;9.27;;;;;;;6.23;100.00;103981.84;5111937;28;20106;-85
2021/12/18 06:04:16;;;;;;;24.02;8.98;;;;;;;6.23;100.00;103979.25;5111313;28;20024;-84
2021/12/18 06:06:41;;;;;;;19.63;8.43;;;;;;;6.26;100.00;103992.34;5111703;28;20051;-84
2021/12/18 06:09:07;;;;;;;21.38;8.98;;;;;;;6.24;100.00;103991.38;5110834;28;20032;-84
2021/12/18 06:11:33;;;;;;;22.88;10.13;;;;;;;6.24;100.00;103988.78;5111144;28;20100;-84
2021/12/18 06:13:58;;;;;;;26.33;10.75;;;;;;;6.22;100.00;103981.78;5111818;28;20077;-85
2021/12/18 06:16:23;;;;;;;27.20;10.18;;;;;;;6.21;100.00;103983.50;5112019;28;20036;-84
2021/12/18 06:18:50;;;;;;;26.67;10.10;;;;;;;6.20;100.00;103978.22;5110816;28;20023;-85
2021/12/18 06:21:17;;;;;;;24.77;10.25;;;;;;;6.23;100.00;103983.56;5112195;28;20024;-85
2021/12/18 06:23:45;;;;;;;28.55;11.48;;;;;;;6.23;100.00;103986.16;5102786;28;20095;-84
2021/12/18 06:26:11;;;;;;;29.55;12.27;;;;;;;6.23;100.00;103980.97;5091021;28;20040;-85
2021/12/18 06:28:36;;;;;;;31.02;10.73;;;;;;;6.14;100.00;103971.06;5091387;28;20026;-85
2021/12/18 06:31:03;;;;;;;30.05;11.73;;;;;;;6.18;100.00;103988.53;5091355;28;20024;-85
2021/12/18 06:33:29;;;;;;;30.90;11.52;;;;;;;6.17;100.00;103978.97;5090897;28;20020;-84
2021/12/18 06:35:55;;;;;;;32.47;11.82;;;;;;;6.16;100.00;103977.22;5091361;28;20028;-85
2021/12/18 06:38:20;;;;;;;31.33;11.85;;;;;;;6.19;100.00;103984.25;5090312;28;20100;-85
2021/12/18 06:40:45;;;;;;;30.13;11.55;;;;;;;6.20;100.00;103989.47;5106649;28;20449;-85
2021/12/18 06:43:11;;;;;;;34.88;12.50;;;;;;;6.20;100.00;103981.69;5111748;28;20475;-84
2021/12/18 06:45:36;;;;;;;32.58;12.10;;;;;;;6.09;100.00;103965.69;5110603;28;20527;-85
2021/12/18 06:48:02;;;;;;;34.92;12.48;;;;;;;6.20;100.00;103980.81;5111827;28;20024;-84
2021/12/18 06:50:27;;;;;;;28.15;10.60;;;;;;;6.15;100.00;103972.84;5111658;28;20031;-85
2021/12/18 06:52:52;;;;;;;33.03;11.30;;;;;;;6.21;100.00;103974.81;5109588;28;20077;-85
2021/12/18 06:55:18;;;;;;;30.13;11.23;;;;;;;6.21;100.00;103980.00;5110599;28;20035;-84
2021/12/18 06:57:43;;;;;;;30.05;10.45;;;;;;;6.18;100.00;103974.66;5090799;28;20072;-84
2021/12/18 07:00:12;;;;;;;29.25;10.50;;;;;;;6.21;100.00;103974.81;5090312;28;20024;-85
2021/12/18 07:02:38;;;;;;;29.45;11.00;;;;;;;6.20;100.00;103973.94;5094796;28;20410;-85
2021/12/18 07:05:04;;;;;;;30.95;10.68;;;;;;;6.20;100.00;103975.63;5094915;28;20469;-85
2021/12/18 07:07:29;;;;;;;29.90;11.20;;;;;;;6.20;100.00;103979.13;5108507;28;20046;-84
2021/12/18 07:09:55;;;;;;;29.70;10.65;;;;;;;6.16;100.00;103972.03;5114923;28;20031;-84
2021/12/18 07:12:20;;;;;;;33.22;11.80;;;;;;;6.19;100.00;103973.88;5115358;28;20050;-84
2021/12/18 07:14:46;;;;;;;25.40;9.80;;;;;;;6.16;100.00;103961.66;5113972;28;20045;-85
2021/12/18 07:17:11;;;;;;;26.05;9.55;;;;;;;6.19;100.00;103973.88;5115049;28;20023;-85
2021/12/18 07:19:37;;;;;;;24.90;8.93;;;;;;;6.15;100.00;103962.50;5114659;28;20107;-84
2021/12/18 07:22:02;;;;;;;27.40;8.80;;;;;;;6.19;100.00;103974.75;5098616;28;20035;-84
2021/12/18 07:24:28;;;;;;;24.45;9.48;;;;;;;6.18;100.00;103974.66;5103189;28;20068;-84
2021/12/18 07:26:53;;;;;;;20.75;8.32;;;;;;;6.16;100.00;103972.03;5114719;27;20070;-85
2021/12/18 07:29:19;;;;;;;23.70;8.43;;;;;;;6.17;100.00;103971.19;5113991;28;20027;-84
2021/12/18 07:31:44;;;;;;;20.55;7.43;;;;;;;6.16;100.00;103977.22;5114740;28;20016;-84
2021/12/18 07:34:09;;;;;;;21.30;7.95;;;;;;;6.15;100.00;103969.34;5115006;28;20028;-84
2021/12/18 07:36:35;;;;;;;21.42;7.85;;;;;;;6.14;100.00;103976.25;5107683;28;20020;-84
2021/12/18 07:39:00;;;;;;;21.33;8.00;;;;;;;6.13;100.00;103969.31;5094060;28;20031;-85
2021/12/18 07:41:25;;;;;;;18.90;7.60;;;;;;;6.18;100.00;103974.66;5094092;28;20507;-84
2021/12/18 07:43:51;;;;;;;21.10;8.13;;;;;;;6.17;100.00;103978.97;5093247;28;20532;-85
2021/12/18 07:46:16;;;;;;;22.17;8.02;;;;;;;6.17;100.00;103975.50;5109007;28;20035;-86
2021/12/18 07:48:41;;;;;;;19.27;7.18;;;;;;;6.15;100.00;103974.53;5113300;28;20016;-85
2021/12/18 07:51:07;;;;;;;19.83;7.22;;;;;;;6.17;100.00;103986.75;5114670;28;20027;-85
2021/12/18 07:53:32;;;;;;;20.73;6.95;;;;;;;6.16;100.00;103984.97;5114481;28;20498;-85
2021/12/18 07:55:58;;;;;;;18.33;7.35;;;;;;;6.12;100.00;103970.13;5113534;27;20023;-84
2021/12/18 07:58:24;;;;;;;19.60;7.30;;;;;;;6.18;100.00;103985.94;5114397;28;20489;-85
2021/12/18 08:00:50;;;;;;;19.55;7.32;;;;;;;6.17;100.00;103983.28;5112514;27;20080;-84
2021/12/18 08:03:15;;;;;;;18.95;7.60;;;;;;;6.15;100.00;103982.31;5113748;28;20474;-86
2021/12/18 08:05:41;;;;;;;22.60;7.63;;;;;;;6.18;100.00;103985.94;5113847;28;20511;-85
2021/12/18 08:08:06;;;;;;;21.77;7.53;;;;;;;6.16;100.00;103978.91;5114133;28;20028;-85
2021/12/18 08:10:31;;;;;;;22.13;8.15;;;;;;;6.18;100.00;103985.94;5111480;28;20031;-85
2021/12/18 08:12:56;;;;;;;24.23;8.50;;;;;;;6.17;100.00;103980.69;5110786;28;20026;-85
2021/12/18 08:15:22;;;;;;;25.95;8.73;;;;;;;6.18;100.00;103980.78;5113912;28;20486;-85
2021/12/18 08:17:47;;;;;;;23.85;7.72;;;;;;;6.14;100.00;103971.06;5112933;28;20027;-84
2021/12/18 08:20:13;;;;;;;26.20;7.78;;;;;;;6.25;100.00;103984.53;5113880;28;20027;-85
2021/12/18 08:22:38;;;;;;;21.80;7.88;;;;;;;6.26;100.00;103986.28;5113554;28;20108;-85
2021/12/18 08:25:05;;;;;;;25.42;8.63;;;;;;;6.26;100.00;103986.28;5113127;28;20063;-85
2021/12/18 08:27:31;;;;;;;23.55;8.80;;;;;;;6.26;100.00;103979.38;5113341;28;20058;-85
2021/12/18 08:29:56;;;;;;;23.23;9.27;;;;;;;6.28;100.00;103979.47;5110332;28;20035;-86
2021/12/18 08:32:22;;;;;;;23.83;8.82;;;;;;;6.29;100.00;103989.00;5095340;28;20533;-85
2021/12/18 08:34:47;;;;;;;24.00;7.50;;;;;;;6.27;100.00;103981.16;5092921;28;20077;-85
2021/12/18 08:37:13;;;;;;;19.63;7.60;;;;;;;6.24;100.00;103980.13;5093311;28;20032;-85
2021/12/18 08:39:38;;;;;;;21.05;7.00;;;;;;;6.31;100.00;103977.91;5091885;28;20140;-86
2021/12/18 08:42:05;;;;;;;18.60;7.40;;;;;;;6.33;100.00;103990.91;5093047;28;20036;-85
2021/12/18 08:44:32;;;;;;;18.98;7.25;;;;;;;6.32;100.00;103984.84;5092104;28;20024;-85
2021/12/18 08:46:57;;;;;;;22.20;8.18;;;;;;;6.35;100.00;103983.22;5092073;28;20032;-85
2021/12/18 08:49:24;;;;;;;21.90;7.50;;;;;;;6.36;100.00;103990.16;5093228;28;20387;-86
2021/12/18 08:51:50;;;;;;;22.20;7.10;;;;;;;6.27;100.00;103978.56;5092463;28;20024;-85
2021/12/18 08:54:16;;;;;;;17.48;6.50;;;;;;;6.35;100.00;103991.00;5092767;28;20107;-86
2021/12/18 08:56:41;;;;;;;19.42;6.32;;;;;;;6.29;100.00;103974.34;5092280;28;20016;-85
2021/12/18 08:59:06;;;;;;;17.42;6.75;;;;;;;6.37;100.00;103986.75;5091893;28;20053;-85
2021/12/18 09:01:32;;;;;;;16.88;5.85;;;;;;;6.37;100.00;103977.25;5111399;28;20024;-85
2021/12/18 09:03:57;;;;;;;13.40;5.50;;;;;;;6.44;100.00;103989.69;5110889;28;20024;-85
2021/12/18 09:06:23;;;;;;;15.30;5.70;;;;;;;6.45;100.00;103982.81;5112464;28;20032;-85
2021/12/18 09:08:48;;;;;;;15.13;6.53;;;;;;;6.47;100.00;103981.16;5112512;28;20031;-85
2021/12/18 09:11:14;;;;;;;17.55;6.43;;;;;;;6.43;100.00;103979.25;5112861;28;20130;-85
2021/12/18 09:13:39;;;;;;;17.13;6.80;;;;;;;6.45;100.00;103986.28;5111869;28;20375;-86
2021/12/18 09:16:05;;;;;;;14.98;6.07;;;;;;;6.48;100.00;103994.19;5113075;28;20455;-86
2021/12/18 09:18:31;;;;;;;17.02;6.80;;;;;;;6.48;100.00;103993.31;5111478;28;20067;-85
2021/12/18 09:20:56;;;;;;;15.43;6.10;;;;;;;6.49;100.00;103982.13;5111845;28;20027;-86
2021/12/18 09:23:22;;;;;;;16.20;6.18;;;;;;;6.55;100.00;103992.75;5112693;28;20032;-85
2021/12/18 09:25:48;;;;;;;17.30;5.90;;;;;;;6.53;100.00;103986.59;5111952;28;20391;-86
2021/12/18 09:28:13;;;;;;;18.38;6.00;;;;;;;6.56;100.00;103984.16;5111909;28;20027;-85
2021/12/18 09:30:40;;;;;;;15.27;6.10;;;;;;;6.57;100.00;103980.72;5112334;28;20467;-86
2021/12/18 09:33:05;;;;;;;17.83;6.47;;;;;;;6.54;100.00;103981.50;5111322;28;20485;-85
2021/12/18 09:35:31;;;;;;;15.10;6.18;;;;;;;6.55;100.00;103990.16;5111668;28;20024;-85
2021/12/18 09:37:56;;;;;;;14.18;5.60;;;;;;;6.54;100.00;103996.16;5112200;28;20479;-85
2021/12/18 09:40:22;;;;;;;15.18;5.63;;;;;;;6.53;100.00;103986.59;5112381;28;20123;-85
2021/12/18 09:42:47;;;;;;;14.45;5.40;;;;;;;6.53;100.00;103984.00;5111496;28;20047;-86
2021/12/18 09:45:14;;;;;;;15.30;5.63;;;;;;;6.56;100.00;103984.16;5112631;27;20023;-85
2021/12/18 09:47:40;;;;;;;16.52;5.53;;;;;;;6.57;100.00;103981.63;5109681;28;20034;-85
2021/12/18 09:50:10;;;;;;;13.70;5.20;;;;;;;6.64;100.00;103989.66;5109453;28;20092;-85
2021/12/18 09:52:35;;;;;;;16.42;6.18;;;;;;;6.62;100.00;103978.34;5112140;28;20466;-86
2021/12/18 09:55:04;;;;;;;12.07;4.68;;;;;;;6.67;100.00;103988.09;5111907;28;20077;-85
2021/12/18 09:57:29;;;;;;;10.70;4.38;;;;;;;6.64;100.00;103979.28;5111276;28;20028;-86
2021/12/18 09:59:54;;;;;;;9.27;4.28;;;;;;;6.61;100.00;103971.41;5112018;28;20031;-86
2021/12/18 10:02:19;;;;;;;8.25;4.18;;;;;;;6.66;100.00;103969.88;5111626;28;20019;-85
2021/12/18 10:04:45;;;;;;;9.73;4.10;;;;;;;6.70;100.00;103967.50;5111079;28;20110;-86
2021/12/18 10:07:26;;;;;;;10.00;4.20;;;;;;;6.76;100.00;103964.25;5112075;28;20378;-85
2021/12/18 10:09:56;;;;;;;11.35;6.65;;;;;;;6.78;100.00;103975.59;5111101;28;20514;-85
2021/12/18 10:12:27;;;;;;;11.98;6.00;;;;;;;6.79;100.00;103966.97;5110775;28;20031;-85
2021/12/18 10:14:57;;;;;;;11.82;4.95;;;;;;;6.78;100.00;103966.09;5111950;28;20486;-85
2021/12/18 10:17:24;;;;;;;10.55;4.95;;;;;;;6.82;100.00;103961.03;5111451;28;20035;-85
2021/12/18 10:19:51;;;;;;;10.68;4.60;;;;;;;6.84;100.00;103964.59;5111793;28;20043;-85
2021/12/18 10:22:17;;;;;;;11.00;4.40;;;;;;;6.85;100.00;103962.06;5112453;28;20032;-85
2021/12/18 10:24:44;;;;;;;10.55;4.47;;;;;;;6.79;100.00;103947.09;5110835;28;20400;-85
2021/12/18 10:27:22;;;;;;;8.90;4.88;;;;;;;6.89;100.00;103955.28;5110530;28;20471;-86
2021/12/18 10:29:49;;;;;;;12.77;5.47;;;;;;;6.88;100.00;103946.63;5111590;28;20122;-85
2021/12/18 10:32:17;;;;;;;10.32;5.60;;;;;;;6.90;100.00;103946.66;5111238;28;20098;-85
2021/12/18 10:34:50;;;;;;;14.23;6.82;;;;;;;6.91;100.00;103951.06;5111416;28;20024;-85
2021/12/18 10:37:23;;;;;;;13.27;6.53;;;;;;;6.92;100.00;103953.69;5115658;28;20032;-85
2021/12/18 10:39:53;;;;;;;13.75;6.35;;;;;;;6.94;100.00;103940.81;5113586;27;20036;-85
2021/12/18 10:42:21;;;;;;;11.77;6.20;;;;;;;6.92;100.00;103945.91;5115840;28;20027;-86
2021/12/18 10:45:07;;;;;;;14.23;6.38;;;;;;;6.94;100.00;103948.59;5114592;28;20034;-85
2021/12/18 10:47:54;;;;;;;13.23;6.30;;;;;;;6.92;100.00;103947.63;5115575;28;20127;-85
2021/12/18 10:50:37;;;;;;;13.35;6.45;;;;;;;6.90;100.00;103954.44;5115717;28;20489;-85
2021/12/18 10:53:02;;;;;;;13.52;6.25;;;;;;;6.86;100.00;103947.38;5112853;28;20432;-86
2021/12/18 10:55:54;;;;;;;14.50;6.30;;;;;;;6.84;100.00;103955.09;5115226;28;20129;-85
2021/12/18 10:58:29;;;;;;;12.23;5.88;;;;;;;6.79;100.00;103946.22;5115921;28;20069;-85
2021/12/18 11:00:55;;;;;;;14.38;6.15;;;;;;;6.79;100.00;103941.94;5115153;27;20063;-85
2021/12/18 11:03:25;;;;;;;12.52;6.45;;;;;;;6.81;100.00;103947.19;5115619;28;20059;-85
2021/12/18 11:06:17;;;;;;;12.88;6.97;;;;;;;6.83;100.00;103942.06;5114424;28;20035;-85
2021/12/18 11:09:10;;;;;;;15.82;9.63;;;;;;;6.82;100.00;103951.53;5095783;28;20032;-85
2021/12/18 11:14:20;;;;;;;9.02;5.22;;;;;;;6.73;100.00;103938.19;5094098;28;20458;-85
2021/12/18 11:16:48;;;;;;;;;;;;;;;6.77;100.00;103945.31;5094924;28;20099;-85
2021/12/18 11:19:16;;;;;;;9.85;5.30;;;;;;;6.70;100.00;103938.97;5094789;28;20007;-85
2021/12/18 11:21:44;;;;;;;11.80;6.63;;;;;;;6.71;100.00;103950.22;5096089;28;20027;-85
2021/12/18 11:24:11;;;;;;;9.20;5.22;;;;;;;6.72;100.00;103946.81;5114881;28;20475;-85
2021/12/18 11:26:59;;;;;;;9.05;5.10;;;;;;;6.70;100.00;103926.00;5113411;28;20035;-85
2021/12/18 11:29:44;;;;;;;9.27;4.70;;;;;;;6.83;100.00;103944.66;5103709;28;20126;-85
2021/12/18 11:32:23;;;;;;;7.18;4.63;;;;;;;6.91;100.00;103935.50;5114894;28;20027;-84
2021/12/18 11:34:50;;;;;;;6.07;3.97;;;;;;;6.95;100.00;103933.06;5113530;28;20038;-85
2021/12/18 11:37:18;;;;;;;6.38;3.53;;;;;;;6.96;100.00;103932.25;5104021;28;20044;-85
2021/12/18 11:39:45;;;;;;;6.97;3.42;;;;;;;7.00;100.00;103930.69;5114387;28;20031;-86
2021/12/18 11:42:12;;;;;;;5.95;3.90;;;;;;;7.00;100.00;103928.09;5114041;28;20024;-85
2021/12/18 11:44:40;;;;;;;6.13;3.95;;;;;;;6.98;100.00;103917.63;5114228;28;20019;-85
2021/12/18 11:47:30;;;;;;;6.60;4.05;;;;;;;7.00;100.00;103928.09;5114560;28;20027;-85
2021/12/18 11:50:03;;;;;;;7.35;4.45;;;;;;;6.99;100.00;103929.78;5113745;28;20028;-85
2021/12/18 11:52:31;;;;;;;9.07;4.57;;;;;;;6.98;100.00;103927.13;5112766;28;20024;-85
2021/12/18 11:54:58;;;;;;;8.45;4.28;;;;;;;6.94;100.00;103925.25;5113495;28;20360;-85
2021/12/18 11:57:48;;;;;;;8.35;5.40;;;;;;;6.95;100.00;103922.69;5114478;27;20505;-85
2021/12/18 12:00:21;;;;;;;8.13;5.18;;;;;;;6.93;100.00;103913.06;5114170;28;20569;-85
2021/12/18 12:02:52;;;;;;;9.73;5.40;;;;;;;6.87;100.00;103910.25;5113367;28;20372;-85